sensor_id;sensor_type;location;lat;lon;timestamp;pressure;altitude;pressure_sealevel;temperature;humidity
72308;BME280;60257;42.638;23.376;2024-03-25T00:00:02;93371.16;;;3.48;99.26
72308;BME280;60257;42.638;23.376;2024-03-25T00:02:03;93381.31;;;3.51;98.99
72308;BME280;60257;42.638;23.376;2024-03-25T00:04:04;93384.31;;;3.37;97.17
72308;BME280;60257;42.638;23.376;2024-03-25T00:06:05;93379.22;;;3.36;98.38
72308;BME280;60257;42.638;23.376;2024-03-25T00:08:07;93374.50;;;3.33;98.71
72308;BME280;60257;42.638;23.376;2024-03-25T00:10:07;93374.34;;;3.29;99.18
72308;BME280;60257;42.638;23.376;2024-03-25T00:12:08;93378.84;;;3.25;99.32
72308;BME280;60257;42.638;23.376;2024-03-25T00:14:09;93368.53;;;3.19;98.79
72308;BME280;60257;42.638;23.376;2024-03-25T00:16:10;93358.78;;;3.05;98.24
72308;BME280;60257;42.638;23.376;2024-03-25T00:18:10;93359.97;;;2.96;99.06
72308;BME280;60257;42.638;23.376;2024-03-25T00:20:11;93362.69;;;2.96;100.00
72308;BME280;60257;42.638;23.376;2024-03-25T00:22:11;93362.56;;;2.92;99.76
72308;BME280;60257;42.638;23.376;2024-03-25T00:24:12;93357.00;;;2.89;99.83
72308;BME280;60257;42.638;23.376;2024-03-25T00:26:12;93366.97;;;2.97;100.00
72308;BME280;60257;42.638;23.376;2024-03-25T00:28:13;93371.13;;;2.94;98.56
72308;BME280;60257;42.638;23.376;2024-03-25T00:30:13;93360.97;;;2.91;99.25
72308;BME280;60257;42.638;23.376;2024-03-25T00:32:13;93352.84;;;2.91;100.00
72308;BME280;60257;42.638;23.376;2024-03-25T00:34:15;93361.31;;;2.90;100.00
72308;BME280;60257;42.638;23.376;2024-03-25T00:36:15;93352.28;;;2.86;100.00
72308;BME280;60257;42.638;23.376;2024-03-25T00:38:16;93347.66;;;2.86;100.00
72308;BME280;60257;42.638;23.376;2024-03-25T00:40:16;93349.69;;;2.89;100.00
72308;BME280;60257;42.638;23.376;2024-03-25T00:42:17;93339.91;;;2.97;100.00
72308;BME280;60257;42.638;23.376;2024-03-25T00:44:17;93343.41;;;2.97;100.00
72308;BME280;60257;42.638;23.376;2024-03-25T00:46:17;93344.78;;;3.03;100.00
72308;BME280;60257;42.638;23.376;2024-03-25T00:48:18;93337.13;;;3.05;100.00
72308;BME280;60257;42.638;23.376;2024-03-25T00:50:18;93347.88;;;3.14;100.00
72308;BME280;60257;42.638;23.376;2024-03-25T00:52:18;93352.50;;;3.14;100.00
72308;BME280;60257;42.638;23.376;2024-03-25T00:54:19;93347.56;;;3.16;100.00
72308;BME280;60257;42.638;23.376;2024-03-25T00:56:19;93340.66;;;3.18;100.00
72308;BME280;60257;42.638;23.376;2024-03-25T00:58:20;93346.06;;;3.18;100.00
72308;BME280;60257;42.638;23.376;2024-03-25T01:00:20;93333.13;;;3.24;100.00
72308;BME280;60257;42.638;23.376;2024-03-25T01:02:21;93339.88;;;3.18;100.00
72308;BME280;60257;42.638;23.376;2024-03-25T01:04:21;93337.44;;;3.25;100.00
72308;BME280;60257;42.638;23.376;2024-03-25T01:06:21;93343.28;;;3.27;100.00
72308;BME280;60257;42.638;23.376;2024-03-25T01:08:22;93343.44;;;3.30;98.76
72308;BME280;60257;42.638;23.376;2024-03-25T01:10:23;93344.00;;;3.36;98.59
72308;BME280;60257;42.638;23.376;2024-03-25T01:12:23;93338.25;;;3.37;98.50
72308;BME280;60257;42.638;23.376;2024-03-25T01:14:23;93322.25;;;3.44;97.85
72308;BME280;60257;42.638;23.376;2024-03-25T01:16:24;93315.56;;;3.42;97.77
72308;BME280;60257;42.638;23.376;2024-03-25T01:18:24;93321.44;;;3.44;97.08
72308;BME280;60257;42.638;23.376;2024-03-25T01:20:24;93313.09;;;3.49;98.03
72308;BME280;60257;42.638;23.376;2024-03-25T01:22:25;93308.59;;;3.53;97.96
72308;BME280;60257;42.638;23.376;2024-03-25T01:24:25;93311.31;;;3.53;97.44
72308;BME280;60257;42.638;23.376;2024-03-25T01:26:25;93320.81;;;3.59;95.07
72308;BME280;60257;42.638;23.376;2024-03-25T01:28:27;93310.28;;;3.58;97.10
72308;BME280;60257;42.638;23.376;2024-03-25T01:30:27;93306.47;;;3.59;97.57
72308;BME280;60257;42.638;23.376;2024-03-25T01:32:29;93314.25;;;3.60;98.62
72308;BME280;60257;42.638;23.376;2024-03-25T01:34:30;93322.84;;;3.62;96.79
72308;BME280;60257;42.638;23.376;2024-03-25T01:36:31;93312.22;;;3.57;98.00
72308;BME280;60257;42.638;23.376;2024-03-25T01:38:31;93311.22;;;3.62;98.50
72308;BME280;60257;42.638;23.376;2024-03-25T01:40:32;93327.16;;;3.63;98.68
72308;BME280;60257;42.638;23.376;2024-03-25T01:42:32;93313.03;;;3.70;97.39
72308;BME280;60257;42.638;23.376;2024-03-25T01:44:33;93324.09;;;3.65;96.68
72308;BME280;60257;42.638;23.376;2024-03-25T01:46:33;93326.94;;;3.68;96.58
72308;BME280;60257;42.638;23.376;2024-03-25T01:48:34;93314.16;;;3.69;97.58
72308;BME280;60257;42.638;23.376;2024-03-25T01:50:36;93316.88;;;3.69;97.44
72308;BME280;60257;42.638;23.376;2024-03-25T01:52:38;93311.13;;;3.70;96.70
72308;BME280;60257;42.638;23.376;2024-03-25T01:54:39;93310.34;;;3.70;96.26
72308;BME280;60257;42.638;23.376;2024-03-25T01:56:40;93303.19;;;3.65;95.75
72308;BME280;60257;42.638;23.376;2024-03-25T01:58:42;93299.03;;;3.68;96.89
72308;BME280;60257;42.638;23.376;2024-03-25T02:00:42;93314.03;;;3.65;96.13
72308;BME280;60257;42.638;23.376;2024-03-25T02:02:43;93320.16;;;3.74;96.91
72308;BME280;60257;42.638;23.376;2024-03-25T02:04:47;93323.75;;;3.66;96.43
72308;BME280;60257;42.638;23.376;2024-03-25T02:06:48;93333.25;;;3.72;95.46
72308;BME280;60257;42.638;23.376;2024-03-25T02:08:50;93345.78;;;3.65;95.86
72308;BME280;60257;42.638;23.376;2024-03-25T02:10:54;93351.66;;;3.67;96.61
72308;BME280;60257;42.638;23.376;2024-03-25T02:12:55;93342.50;;;3.59;96.19
72308;BME280;60257;42.638;23.376;2024-03-25T02:14:55;93345.19;;;3.59;95.88
72308;BME280;60257;42.638;23.376;2024-03-25T02:16:56;93346.84;;;3.39;96.30
72308;BME280;60257;42.638;23.376;2024-03-25T02:18:56;93353.41;;;3.38;97.13
72308;BME280;60257;42.638;23.376;2024-03-25T02:20:57;93359.28;;;3.40;97.76
72308;BME280;60257;42.638;23.376;2024-03-25T02:22:58;93357.34;;;3.41;97.23
72308;BME280;60257;42.638;23.376;2024-03-25T02:24:59;93339.72;;;3.35;97.10
72308;BME280;60257;42.638;23.376;2024-03-25T02:27:00;93326.63;;;3.37;96.82
72308;BME280;60257;42.638;23.376;2024-03-25T02:29:02;93333.94;;;3.24;95.34
72308;BME280;60257;42.638;23.376;2024-03-25T02:31:02;93333.13;;;3.24;95.78
72308;BME280;60257;42.638;23.376;2024-03-25T02:33:03;93323.19;;;3.28;95.06
72308;BME280;60257;42.638;23.376;2024-03-25T02:35:05;93330.19;;;3.17;94.54
72308;BME280;60257;42.638;23.376;2024-03-25T02:37:07;93342.13;;;3.16;94.93
72308;BME280;60257;42.638;23.376;2024-03-25T02:39:08;93342.38;;;3.23;96.26
72308;BME280;60257;42.638;23.376;2024-03-25T02:41:10;93333.13;;;3.24;96.21
72308;BME280;60257;42.638;23.376;2024-03-25T02:43:11;93340.22;;;3.16;95.74
72308;BME280;60257;42.638;23.376;2024-03-25T02:45:11;93338.09;;;3.22;95.91
72308;BME280;60257;42.638;23.376;2024-03-25T02:47:12;93338.41;;;3.20;96.33
72308;BME280;60257;42.638;23.376;2024-03-25T02:49:12;93343.97;;;3.24;96.04
72308;BME280;60257;42.638;23.376;2024-03-25T02:51:12;93352.91;;;3.24;95.65
72308;BME280;60257;42.638;23.376;2024-03-25T02:53:13;93355.25;;;3.26;96.51
72308;BME280;60257;42.638;23.376;2024-03-25T02:55:13;93356.72;;;3.23;96.58
72308;BME280;60257;42.638;23.376;2024-03-25T02:57:14;93350.97;;;3.25;96.30
72308;BME280;60257;42.638;23.376;2024-03-25T02:59:14;93357.97;;;3.26;96.45
72308;BME280;60257;42.638;23.376;2024-03-25T03:01:16;93347.25;;;3.29;96.19
72308;BME280;60257;42.638;23.376;2024-03-25T03:03:16;93356.19;;;3.30;95.97
72308;BME280;60257;42.638;23.376;2024-03-25T03:05:16;93360.47;;;3.31;94.66
72308;BME280;60257;42.638;23.376;2024-03-25T03:07:17;93365.69;;;3.36;94.47
72308;BME280;60257;42.638;23.376;2024-03-25T03:09:17;93362.41;;;3.30;93.42
72308;BME280;60257;42.638;23.376;2024-03-25T03:11:17;93367.03;;;3.30;92.28
72308;BME280;60257;42.638;23.376;2024-03-25T03:13:18;93377.22;;;3.33;91.81
72308;BME280;60257;42.638;23.376;2024-03-25T03:15:18;93380.59;;;3.42;90.35
72308;BME280;60257;42.638;23.376;2024-03-25T03:17:18;93376.91;;;3.46;90.30
72308;BME280;60257;42.638;23.376;2024-03-25T03:19:19;93373.94;;;3.39;89.29
72308;BME280;60257;42.638;23.376;2024-03-25T03:21:19;93389.19;;;3.44;88.40
72308;BME280;60257;42.638;23.376;2024-03-25T03:23:20;93376.91;;;3.46;88.10
72308;BME280;60257;42.638;23.376;2024-03-25T03:25:20;93371.03;;;3.44;87.78
72308;BME280;60257;42.638;23.376;2024-03-25T03:27:20;93378.81;;;3.46;86.50
72308;BME280;60257;42.638;23.376;2024-03-25T03:29:21;93379.47;;;3.43;86.69
72308;BME280;60257;42.638;23.376;2024-03-25T03:31:21;93393.34;;;3.41;87.13
72308;BME280;60257;42.638;23.376;2024-03-25T03:33:22;93391.38;;;3.51;86.60
72308;BME280;60257;42.638;23.376;2024-03-25T03:35:22;93391.50;;;3.54;87.83
72308;BME280;60257;42.638;23.376;2024-03-25T03:37:22;93392.38;;;3.46;87.26
72308;BME280;60257;42.638;23.376;2024-03-25T03:39:23;93386.75;;;3.51;87.94
72308;BME280;60257;42.638;23.376;2024-03-25T03:41:23;93389.25;;;3.56;88.12
72308;BME280;60257;42.638;23.376;2024-03-25T03:43:23;93390.72;;;3.54;88.10
72308;BME280;60257;42.638;23.376;2024-03-25T03:45:24;93394.31;;;3.58;88.08
72308;BME280;60257;42.638;23.376;2024-03-25T03:47:25;93394.13;;;3.63;87.29
72308;BME280;60257;42.638;23.376;2024-03-25T03:49:25;93395.59;;;3.72;87.01
72308;BME280;60257;42.638;23.376;2024-03-25T03:51:26;93387.72;;;3.79;84.68
72308;BME280;60257;42.638;23.376;2024-03-25T03:53:26;93388.50;;;3.80;83.29
72308;BME280;60257;42.638;23.376;2024-03-25T03:55:27;93401.66;;;3.90;82.90
72308;BME280;60257;42.638;23.376;2024-03-25T03:57:27;93387.63;;;3.88;84.32
72308;BME280;60257;42.638;23.376;2024-03-25T03:59:27;93391.59;;;3.91;84.00
72308;BME280;60257;42.638;23.376;2024-03-25T04:01:28;93388.78;;;3.87;81.81
72308;BME280;60257;42.638;23.376;2024-03-25T04:03:28;93394.63;;;3.89;83.50
72308;BME280;60257;42.638;23.376;2024-03-25T04:05:30;93413.75;;;3.93;82.90
72308;BME280;60257;42.638;23.376;2024-03-25T04:07:32;93420.63;;;3.90;81.60
72308;BME280;60257;42.638;23.376;2024-03-25T04:09:32;93427.66;;;3.91;82.37
72308;BME280;60257;42.638;23.376;2024-03-25T04:11:36;93426.97;;;3.94;81.39
72308;BME280;60257;42.638;23.376;2024-03-25T04:13:36;93426.28;;;3.85;81.31
72308;BME280;60257;42.638;23.376;2024-03-25T04:15:40;93432.94;;;3.87;82.27
72308;BME280;60257;42.638;23.376;2024-03-25T04:17:40;93436.09;;;3.90;80.99
72308;BME280;60257;42.638;23.376;2024-03-25T04:19:41;93434.66;;;3.92;79.31
72308;BME280;60257;42.638;23.376;2024-03-25T04:21:41;93429.09;;;3.88;80.96
72308;BME280;60257;42.638;23.376;2024-03-25T04:23:42;93429.88;;;3.89;81.25
72308;BME280;60257;42.638;23.376;2024-03-25T04:25:43;93428.91;;;3.94;80.27
72308;BME280;60257;42.638;23.376;2024-03-25T04:27:44;93433.16;;;3.82;80.43
72308;BME280;60257;42.638;23.376;2024-03-25T04:29:45;93441.88;;;3.88;80.21
72308;BME280;60257;42.638;23.376;2024-03-25T04:31:45;93448.78;;;3.85;79.93
72308;BME280;60257;42.638;23.376;2024-03-25T04:33:45;93441.44;;;3.86;79.91
72308;BME280;60257;42.638;23.376;2024-03-25T04:35:46;93450.47;;;3.90;79.08
72308;BME280;60257;42.638;23.376;2024-03-25T04:37:47;93460.44;;;3.98;79.23
72308;BME280;60257;42.638;23.376;2024-03-25T04:39:47;93455.34;;;3.97;80.12
72308;BME280;60257;42.638;23.376;2024-03-25T04:41:48;93467.84;;;3.89;78.65
72308;BME280;60257;42.638;23.376;2024-03-25T04:43:49;93478.28;;;3.87;80.50
72308;BME280;60257;42.638;23.376;2024-03-25T04:45:49;93488.41;;;3.78;78.08
72308;BME280;60257;42.638;23.376;2024-03-25T04:47:49;93484.81;;;3.86;77.76
72308;BME280;60257;42.638;23.376;2024-03-25T04:49:50;93484.81;;;3.86;79.37
72308;BME280;60257;42.638;23.376;2024-03-25T04:51:50;93492.47;;;3.84;79.10
72308;BME280;60257;42.638;23.376;2024-03-25T04:53:52;93498.03;;;3.87;79.64
72308;BME280;60257;42.638;23.376;2024-03-25T04:55:53;93507.63;;;3.85;78.36
72308;BME280;60257;42.638;23.376;2024-03-25T04:57:54;93504.66;;;3.78;78.22
72308;BME280;60257;42.638;23.376;2024-03-25T04:59:55;93489.19;;;3.78;78.63
72308;BME280;60257;42.638;23.376;2024-03-25T05:01:55;93506.88;;;3.64;79.08
72308;BME280;60257;42.638;23.376;2024-03-25T05:03:55;93496.59;;;3.69;79.17
72308;BME280;60257;42.638;23.376;2024-03-25T05:05:55;93508.50;;;3.77;78.34
72308;BME280;60257;42.638;23.376;2024-03-25T05:07:56;93494.81;;;3.73;78.79
72308;BME280;60257;42.638;23.376;2024-03-25T05:09:57;93499.91;;;3.75;78.59
72308;BME280;60257;42.638;23.376;2024-03-25T05:11:58;93514.03;;;3.80;78.35
72308;BME280;60257;42.638;23.376;2024-03-25T05:13:58;93500.22;;;3.73;78.48
72308;BME280;60257;42.638;23.376;2024-03-25T05:15:59;93503.56;;;3.79;78.52
72308;BME280;60257;42.638;23.376;2024-03-25T05:17:59;93513.13;;;3.76;78.06
72308;BME280;60257;42.638;23.376;2024-03-25T05:19:59;93503.72;;;3.74;78.55
72308;BME280;60257;42.638;23.376;2024-03-25T05:22:00;93507.25;;;3.74;78.85
72308;BME280;60257;42.638;23.376;2024-03-25T05:24:00;93506.69;;;3.81;79.72
72308;BME280;60257;42.638;23.376;2024-03-25T05:26:01;93514.41;;;3.79;77.95
72308;BME280;60257;42.638;23.376;2024-03-25T05:28:01;93515.78;;;3.85;78.03
72308;BME280;60257;42.638;23.376;2024-03-25T05:30:01;93514.75;;;3.90;77.79
72308;BME280;60257;42.638;23.376;2024-03-25T05:32:02;93516.34;;;3.91;78.52
72308;BME280;60257;42.638;23.376;2024-03-25T05:34:03;93522.91;;;3.90;77.65
72308;BME280;60257;42.638;23.376;2024-03-25T05:36:08;93521.38;;;3.80;77.80
72308;BME280;60257;42.638;23.376;2024-03-25T05:38:09;93539.38;;;3.84;77.13
72308;BME280;60257;42.638;23.376;2024-03-25T05:40:09;93529.41;;;3.76;77.77
72308;BME280;60257;42.638;23.376;2024-03-25T05:42:11;93534.94;;;3.80;78.07
72308;BME280;60257;42.638;23.376;2024-03-25T05:44:12;93532.50;;;3.87;77.42
72308;BME280;60257;42.638;23.376;2024-03-25T05:46:12;93535.22;;;3.87;77.69
72308;BME280;60257;42.638;23.376;2024-03-25T05:48:13;93535.41;;;3.82;77.00
72308;BME280;60257;42.638;23.376;2024-03-25T05:50:13;93541.09;;;3.89;77.58
72308;BME280;60257;42.638;23.376;2024-03-25T05:52:13;93555.91;;;3.92;77.25
72308;BME280;60257;42.638;23.376;2024-03-25T05:54:14;93544.81;;;3.84;76.33
72308;BME280;60257;42.638;23.376;2024-03-25T05:56:14;93544.34;;;3.82;76.48
72308;BME280;60257;42.638;23.376;2024-03-25T05:58:15;93548.16;;;3.81;76.77
72308;BME280;60257;42.638;23.376;2024-03-25T06:00:16;93559.63;;;3.87;76.15
72308;BME280;60257;42.638;23.376;2024-03-25T06:02:16;93557.44;;;3.80;76.38
72308;BME280;60257;42.638;23.376;2024-03-25T06:04:17;93573.25;;;3.78;76.19
72308;BME280;60257;42.638;23.376;2024-03-25T06:06:17;93564.25;;;3.86;77.05
72308;BME280;60257;42.638;23.376;2024-03-25T06:08:18;93564.59;;;3.85;75.60
72308;BME280;60257;42.638;23.376;2024-03-25T06:10:24;93579.06;;;3.89;75.95
72308;BME280;60257;42.638;23.376;2024-03-25T06:12:24;93563.53;;;3.77;75.92
72308;BME280;60257;42.638;23.376;2024-03-25T06:14:25;93581.19;;;3.83;75.60
72308;BME280;60257;42.638;23.376;2024-03-25T06:16:25;93587.25;;;3.80;75.65
72308;BME280;60257;42.638;23.376;2024-03-25T06:18:26;93590.91;;;3.84;76.58
72308;BME280;60257;42.638;23.376;2024-03-25T06:20:26;93584.75;;;3.75;75.98
72308;BME280;60257;42.638;23.376;2024-03-25T06:22:27;93584.53;;;3.80;75.67
72308;BME280;60257;42.638;23.376;2024-03-25T06:24:27;93600.50;;;3.82;75.60
72308;BME280;60257;42.638;23.376;2024-03-25T06:26:27;93593.09;;;3.91;75.37
72308;BME280;60257;42.638;23.376;2024-03-25T06:28:28;93599.09;;;3.97;75.34
72308;BME280;60257;42.638;23.376;2024-03-25T06:30:28;93598.50;;;4.12;75.19
72308;BME280;60257;42.638;23.376;2024-03-25T06:32:47;93606.09;;;4.18;74.67
72308;BME280;60257;42.638;23.376;2024-03-25T06:35:06;93605.03;;;4.32;74.06
72308;BME280;60257;42.638;23.376;2024-03-25T06:37:07;93615.81;;;4.40;74.01
72308;BME280;60257;42.638;23.376;2024-03-25T06:39:09;93621.34;;;4.44;72.70
72308;BME280;60257;42.638;23.376;2024-03-25T06:41:09;93606.63;;;4.33;73.22
72308;BME280;60257;42.638;23.376;2024-03-25T06:43:10;93617.84;;;4.43;73.59
72308;BME280;60257;42.638;23.376;2024-03-25T06:45:10;93618.44;;;4.49;73.34
72308;BME280;60257;42.638;23.376;2024-03-25T06:47:10;93604.66;;;4.54;72.89
72308;BME280;60257;42.638;23.376;2024-03-25T06:49:11;93612.09;;;4.45;71.72
72308;BME280;60257;42.638;23.376;2024-03-25T06:51:11;93635.50;;;4.49;72.41
72308;BME280;60257;42.638;23.376;2024-03-25T06:53:11;93625.28;;;4.67;73.41
72308;BME280;60257;42.638;23.376;2024-03-25T06:55:12;93631.28;;;4.73;72.73
72308;BME280;60257;42.638;23.376;2024-03-25T06:57:12;93642.69;;;4.66;71.24
72308;BME280;60257;42.638;23.376;2024-03-25T06:59:12;93629.91;;;4.67;72.25
72308;BME280;60257;42.638;23.376;2024-03-25T07:01:13;93627.34;;;4.82;72.37
72308;BME280;60257;42.638;23.376;2024-03-25T07:03:17;93631.66;;;4.83;71.04
72308;BME280;60257;42.638;23.376;2024-03-25T07:05:17;93632.63;;;4.67;71.13
72308;BME280;60257;42.638;23.376;2024-03-25T07:07:17;93641.63;;;4.79;71.49
72308;BME280;60257;42.638;23.376;2024-03-25T07:09:18;93631.34;;;4.85;71.84
72308;BME280;60257;42.638;23.376;2024-03-25T07:11:18;93632.13;;;4.85;70.66
72308;BME280;60257;42.638;23.376;2024-03-25T07:13:19;93633.72;;;4.86;69.89
72308;BME280;60257;42.638;23.376;2024-03-25T07:15:19;93630.78;;;5.03;71.68
72308;BME280;60257;42.638;23.376;2024-03-25T07:17:19;93632.50;;;5.08;69.78
72308;BME280;60257;42.638;23.376;2024-03-25T07:19:21;93637.25;;;5.11;70.17
72308;BME280;60257;42.638;23.376;2024-03-25T07:21:22;93647.22;;;4.95;69.13
72308;BME280;60257;42.638;23.376;2024-03-25T07:23:22;93647.88;;;5.04;69.87
72308;BME280;60257;42.638;23.376;2024-03-25T07:25:23;93644.66;;;5.23;68.84
72308;BME280;60257;42.638;23.376;2024-03-25T07:27:23;93650.31;;;5.30;68.51
72308;BME280;60257;42.638;23.376;2024-03-25T07:29:24;93653.59;;;5.35;68.90
72308;BME280;60257;42.638;23.376;2024-03-25T07:31:24;93653.50;;;5.44;68.71
72308;BME280;60257;42.638;23.376;2024-03-25T07:33:25;93657.47;;;5.59;68.83
72308;BME280;60257;42.638;23.376;2024-03-25T07:35:26;93662.22;;;5.62;68.30
72308;BME280;60257;42.638;23.376;2024-03-25T07:37:26;93636.84;;;5.58;68.09
72308;BME280;60257;42.638;23.376;2024-03-25T07:39:27;93656.44;;;5.75;68.54
72308;BME280;60257;42.638;23.376;2024-03-25T07:41:27;93653.75;;;5.63;67.47
72308;BME280;60257;42.638;23.376;2024-03-25T07:43:28;93656.47;;;5.63;66.62
72308;BME280;60257;42.638;23.376;2024-03-25T07:45:28;93661.19;;;5.66;66.84
72308;BME280;60257;42.638;23.376;2024-03-25T07:47:29;93650.09;;;5.84;67.62
72308;BME280;60257;42.638;23.376;2024-03-25T07:49:31;93653.84;;;5.91;67.10
72308;BME280;60257;42.638;23.376;2024-03-25T07:51:31;93662.00;;;5.91;66.48
72308;BME280;60257;42.638;23.376;2024-03-25T07:53:31;93647.38;;;5.84;66.25
72308;BME280;60257;42.638;23.376;2024-03-25T07:55:32;93655.91;;;5.94;66.97
72308;BME280;60257;42.638;23.376;2024-03-25T07:57:32;93667.34;;;6.00;66.93
72308;BME280;60257;42.638;23.376;2024-03-25T07:59:32;93664.50;;;5.84;65.74
72308;BME280;60257;42.638;23.376;2024-03-25T08:01:33;93670.97;;;5.79;65.62
72308;BME280;60257;42.638;23.376;2024-03-25T08:03:33;93672.44;;;5.65;65.35
72308;BME280;60257;42.638;23.376;2024-03-25T08:05:34;93664.41;;;5.80;66.79
72308;BME280;60257;42.638;23.376;2024-03-25T08:07:34;93673.81;;;5.95;65.71
72308;BME280;60257;42.638;23.376;2024-03-25T08:09:34;93666.88;;;6.10;65.47
72308;BME280;60257;42.638;23.376;2024-03-25T08:11:35;93657.34;;;6.16;64.12
72308;BME280;60257;42.638;23.376;2024-03-25T08:13:35;93678.06;;;6.21;63.76
72308;BME280;60257;42.638;23.376;2024-03-25T08:15:36;93673.34;;;6.17;63.85
72308;BME280;60257;42.638;23.376;2024-03-25T08:17:36;93676.47;;;6.19;64.77
72308;BME280;60257;42.638;23.376;2024-03-25T08:19:36;93667.97;;;6.21;65.15
72308;BME280;60257;42.638;23.376;2024-03-25T08:21:37;93672.41;;;6.13;64.99
72308;BME280;60257;42.638;23.376;2024-03-25T08:23:37;93677.97;;;6.17;64.97
72308;BME280;60257;42.638;23.376;2024-03-25T08:25:37;93676.22;;;6.37;65.57
72308;BME280;60257;42.638;23.376;2024-03-25T08:27:38;93673.97;;;6.39;63.61
72308;BME280;60257;42.638;23.376;2024-03-25T08:29:38;93679.13;;;6.56;63.65
72308;BME280;60257;42.638;23.376;2024-03-25T08:31:38;93683.00;;;6.83;63.58
72308;BME280;60257;42.638;23.376;2024-03-25T08:33:39;93683.28;;;6.93;63.23
72308;BME280;60257;42.638;23.376;2024-03-25T08:35:39;93688.75;;;6.93;62.50
72308;BME280;60257;42.638;23.376;2024-03-25T08:37:39;93685.88;;;7.02;61.99
72308;BME280;60257;42.638;23.376;2024-03-25T08:39:40;93686.94;;;7.13;63.28
72308;BME280;60257;42.638;23.376;2024-03-25T08:41:40;93690.28;;;7.07;61.81
72308;BME280;60257;42.638;23.376;2024-03-25T08:43:41;93691.41;;;7.06;62.60
72308;BME280;60257;42.638;23.376;2024-03-25T08:45:41;93703.19;;;6.82;61.79
72308;BME280;60257;42.638;23.376;2024-03-25T08:47:41;93704.78;;;6.55;62.13
72308;BME280;60257;42.638;23.376;2024-03-25T08:49:42;93683.66;;;6.64;63.03
72308;BME280;60257;42.638;23.376;2024-03-25T08:51:43;93695.41;;;6.80;63.63
72308;BME280;60257;42.638;23.376;2024-03-25T08:53:43;93687.16;;;6.92;62.30
72308;BME280;60257;42.638;23.376;2024-03-25T08:55:45;93685.44;;;7.16;62.86
72308;BME280;60257;42.638;23.376;2024-03-25T08:57:45;93704.19;;;7.17;61.85
72308;BME280;60257;42.638;23.376;2024-03-25T08:59:46;93693.72;;;7.04;59.93
72308;BME280;60257;42.638;23.376;2024-03-25T09:01:46;93696.25;;;6.97;59.26
72308;BME280;60257;42.638;23.376;2024-03-25T09:03:47;93699.59;;;7.06;59.92
72308;BME280;60257;42.638;23.376;2024-03-25T09:05:48;93704.09;;;6.86;60.15
72308;BME280;60257;42.638;23.376;2024-03-25T09:07:51;93702.56;;;6.73;60.76
72308;BME280;60257;42.638;23.376;2024-03-25T09:09:52;93689.22;;;6.55;61.47
72308;BME280;60257;42.638;23.376;2024-03-25T09:12:11;93691.38;;;6.62;61.49
72308;BME280;60257;42.638;23.376;2024-03-25T09:14:12;93712.31;;;6.74;61.52
72308;BME280;60257;42.638;23.376;2024-03-25T09:16:12;93711.94;;;6.87;62.42
72308;BME280;60257;42.638;23.376;2024-03-25T09:18:12;93703.84;;;6.91;61.66
72308;BME280;60257;42.638;23.376;2024-03-25T09:20:13;93713.59;;;7.04;61.30
72308;BME280;60257;42.638;23.376;2024-03-25T09:22:20;93710.41;;;7.02;61.29
72308;BME280;60257;42.638;23.376;2024-03-25T09:24:21;93713.16;;;7.18;60.73
72308;BME280;60257;42.638;23.376;2024-03-25T09:26:21;93716.72;;;7.34;59.93
72308;BME280;60257;42.638;23.376;2024-03-25T09:28:21;93717.44;;;7.47;60.01
72308;BME280;60257;42.638;23.376;2024-03-25T09:30:22;93722.91;;;7.47;59.50
72308;BME280;60257;42.638;23.376;2024-03-25T09:32:22;93725.66;;;7.19;58.85
72308;BME280;60257;42.638;23.376;2024-03-25T09:34:24;93724.19;;;7.37;59.09
72308;BME280;60257;42.638;23.376;2024-03-25T09:36:24;93733.19;;;7.53;58.87
72308;BME280;60257;42.638;23.376;2024-03-25T09:38:25;93733.38;;;7.60;58.15
72308;BME280;60257;42.638;23.376;2024-03-25T09:40:25;93735.41;;;7.63;58.30
72308;BME280;60257;42.638;23.376;2024-03-25T09:42:27;93719.47;;;7.50;58.10
72308;BME280;60257;42.638;23.376;2024-03-25T09:44:31;93718.84;;;7.41;58.33
72308;BME280;60257;42.638;23.376;2024-03-25T09:46:32;93712.16;;;7.69;59.00
72308;BME280;60257;42.638;23.376;2024-03-25T09:48:34;93730.47;;;8.00;58.54
72308;BME280;60257;42.638;23.376;2024-03-25T09:50:35;93724.38;;;8.23;57.42
72308;BME280;60257;42.638;23.376;2024-03-25T09:52:36;93724.31;;;8.35;56.36
72308;BME280;60257;42.638;23.376;2024-03-25T09:54:37;93740.31;;;8.36;55.68
72308;BME280;60257;42.638;23.376;2024-03-25T09:56:38;93735.06;;;8.28;55.66
72308;BME280;60257;42.638;23.376;2024-03-25T09:58:40;93726.75;;;8.24;56.11
72308;BME280;60257;42.638;23.376;2024-03-25T10:00:42;93726.47;;;8.45;56.89
72308;BME280;60257;42.638;23.376;2024-03-25T10:02:42;93735.47;;;8.45;56.06
72308;BME280;60257;42.638;23.376;2024-03-25T10:04:46;93740.06;;;8.41;56.99
72308;BME280;60257;42.638;23.376;2024-03-25T10:06:47;93720.91;;;8.57;55.54
72308;BME280;60257;42.638;23.376;2024-03-25T10:08:48;93714.56;;;8.53;55.30
72308;BME280;60257;42.638;23.376;2024-03-25T10:10:48;93711.63;;;8.62;54.86
72308;BME280;60257;42.638;23.376;2024-03-25T10:12:50;93746.00;;;8.63;54.72
72308;BME280;60257;42.638;23.376;2024-03-25T10:14:51;93722.28;;;8.32;54.60
72308;BME280;60257;42.638;23.376;2024-03-25T10:16:51;93735.56;;;8.49;55.26
72308;BME280;60257;42.638;23.376;2024-03-25T10:18:52;93737.03;;;8.62;54.27
72308;BME280;60257;42.638;23.376;2024-03-25T10:20:53;93722.81;;;8.72;53.21
72308;BME280;60257;42.638;23.376;2024-03-25T10:22:53;93727.97;;;8.77;53.02
72308;BME280;60257;42.638;23.376;2024-03-25T10:24:54;93728.41;;;8.79;52.71
72308;BME280;60257;42.638;23.376;2024-03-25T10:26:54;93729.28;;;8.83;53.22
72308;BME280;60257;42.638;23.376;2024-03-25T10:29:04;93741.78;;;8.84;52.35
72308;BME280;60257;42.638;23.376;2024-03-25T10:31:06;93727.44;;;8.87;53.15
72308;BME280;60257;42.638;23.376;2024-03-25T10:33:07;93731.66;;;8.85;52.85
72308;BME280;60257;42.638;23.376;2024-03-25T10:35:08;93726.97;;;8.85;52.89
72308;BME280;60257;42.638;23.376;2024-03-25T10:37:09;93739.66;;;8.94;52.07
72308;BME280;60257;42.638;23.376;2024-03-25T10:39:11;93738.81;;;8.90;52.34